Terminal Aerodrome Forecast
Issued by NWS Brownsville, TX

Home | Current Version | Previous Version | Text Only | Print | Product List | Glossary On
Versions: 1 2 3 4 5 6 7 8 9 10 11 12 13 14 15 16
000
FTUS44 KBRO 310300 AAA
TAFHRL
TAF AMD
KHRL 310303Z 3103/3124 14016G28KT P6SM SCT021
     FM310500 14012KT P6SM SCT020
     FM310900 14005KT P6SM FEW025
     FM311400 17015KT P6SM SKC
     FM311600 16016G23KT P6SM FEW250=

USA.gov is the U.S. government's official web portal to all federal, state and local government web resources and services.